sensor_id;sensor_type;location;lat;lon;timestamp;temperature;humidity
21646;DHT22;10984;45.712;4.800;2023-02-01T00:01:53;6.00;99.90
21646;DHT22;10984;45.712;4.800;2023-02-01T00:04:19;6.00;99.90
21646;DHT22;10984;45.712;4.800;2023-02-01T00:06:45;6.00;99.90
21646;DHT22;10984;45.712;4.800;2023-02-01T00:09:11;6.00;99.90
21646;DHT22;10984;45.712;4.800;2023-02-01T00:11:36;6.00;99.90
21646;DHT22;10984;45.712;4.800;2023-02-01T00:14:02;6.00;99.90
21646;DHT22;10984;45.712;4.800;2023-02-01T00:16:30;6.00;99.90
21646;DHT22;10984;45.712;4.800;2023-02-01T00:19:14;5.90;99.90
21646;DHT22;10984;45.712;4.800;2023-02-01T00:21:40;5.90;99.90
21646;DHT22;10984;45.712;4.800;2023-02-01T00:24:06;6.00;99.90
21646;DHT22;10984;45.712;4.800;2023-02-01T00:29:00;6.00;99.90
21646;DHT22;10984;45.712;4.800;2023-02-01T00:31:26;5.90;99.90
21646;DHT22;10984;45.712;4.800;2023-02-01T00:33:52;5.90;99.90
21646;DHT22;10984;45.712;4.800;2023-02-01T00:36:17;5.90;99.90
21646;DHT22;10984;45.712;4.800;2023-02-01T00:38:43;5.90;99.90
21646;DHT22;10984;45.712;4.800;2023-02-01T00:41:28;5.90;99.90
21646;DHT22;10984;45.712;4.800;2023-02-01T00:43:54;5.90;99.90
21646;DHT22;10984;45.712;4.800;2023-02-01T00:46:20;5.90;99.90
21646;DHT22;10984;45.712;4.800;2023-02-01T00:48:46;5.90;99.90
21646;DHT22;10984;45.712;4.800;2023-02-01T00:51:15;5.90;99.90
21646;DHT22;10984;45.712;4.800;2023-02-01T00:53:41;5.90;99.90
21646;DHT22;10984;45.712;4.800;2023-02-01T00:56:07;5.80;99.90
21646;DHT22;10984;45.712;4.800;2023-02-01T00:58:34;5.80;99.90
21646;DHT22;10984;45.712;4.800;2023-02-01T01:01:20;5.70;99.90
21646;DHT22;10984;45.712;4.800;2023-02-01T01:03:49;5.70;99.90
21646;DHT22;10984;45.712;4.800;2023-02-01T01:06:19;5.70;99.90
21646;DHT22;10984;45.712;4.800;2023-02-01T01:08:45;5.70;99.90
21646;DHT22;10984;45.712;4.800;2023-02-01T01:13:58;5.70;99.90
21646;DHT22;10984;45.712;4.800;2023-02-01T01:16:26;5.80;99.90
21646;DHT22;10984;45.712;4.800;2023-02-01T01:18:52;5.70;99.90
21646;DHT22;10984;45.712;4.800;2023-02-01T01:21:18;5.70;99.90
21646;DHT22;10984;45.712;4.800;2023-02-01T01:23:45;5.80;99.90
21646;DHT22;10984;45.712;4.800;2023-02-01T01:26:30;5.80;99.90
21646;DHT22;10984;45.712;4.800;2023-02-01T01:28:57;5.80;99.90
21646;DHT22;10984;45.712;4.800;2023-02-01T01:31:23;5.80;99.90
21646;DHT22;10984;45.712;4.800;2023-02-01T01:34:08;5.80;99.90
21646;DHT22;10984;45.712;4.800;2023-02-01T01:36:33;5.70;99.90
21646;DHT22;10984;45.712;4.800;2023-02-01T01:38:59;5.70;99.90
21646;DHT22;10984;45.712;4.800;2023-02-01T01:41:29;5.60;99.90
21646;DHT22;10984;45.712;4.800;2023-02-01T01:44:00;5.50;99.90
21646;DHT22;10984;45.712;4.800;2023-02-01T01:46:27;5.50;99.90
21646;DHT22;10984;45.712;4.800;2023-02-01T01:48:59;5.40;99.90
21646;DHT22;10984;45.712;4.800;2023-02-01T01:51:28;5.40;99.90
21646;DHT22;10984;45.712;4.800;2023-02-01T01:56:44;5.40;99.90
21646;DHT22;10984;45.712;4.800;2023-02-01T01:59:12;5.30;99.90
21646;DHT22;10984;45.712;4.800;2023-02-01T02:01:38;5.20;99.90
21646;DHT22;10984;45.712;4.800;2023-02-01T02:04:04;5.20;99.90
21646;DHT22;10984;45.712;4.800;2023-02-01T02:06:36;5.20;99.90
21646;DHT22;10984;45.712;4.800;2023-02-01T02:09:03;5.10;99.90
21646;DHT22;10984;45.712;4.800;2023-02-01T02:11:29;5.10;99.90
21646;DHT22;10984;45.712;4.800;2023-02-01T02:13:56;5.00;99.90
21646;DHT22;10984;45.712;4.800;2023-02-01T02:37:29;4.10;99.90
21646;DHT22;10984;45.712;4.800;2023-02-01T02:46:05;3.90;99.90
21646;DHT22;10984;45.712;4.800;2023-02-01T02:49:04;3.80;99.90
21646;DHT22;10984;45.712;4.800;2023-02-01T02:54:52;3.60;99.90
21646;DHT22;10984;45.712;4.800;2023-02-01T02:57:39;3.50;99.90
21646;DHT22;10984;45.712;4.800;2023-02-01T03:00:29;3.50;99.90
21646;DHT22;10984;45.712;4.800;2023-02-01T03:03:14;3.40;99.90
21646;DHT22;10984;45.712;4.800;2023-02-01T03:05:59;3.30;99.90
21646;DHT22;10984;45.712;4.800;2023-02-01T03:08:27;3.30;99.90
21646;DHT22;10984;45.712;4.800;2023-02-01T03:22:34;3.00;99.90
21646;DHT22;10984;45.712;4.800;2023-02-01T03:28:07;3.00;99.90
21646;DHT22;10984;45.712;4.800;2023-02-01T03:30:38;2.90;99.90
21646;DHT22;10984;45.712;4.800;2023-02-01T03:33:12;2.80;99.90
21646;DHT22;10984;45.712;4.800;2023-02-01T03:44:35;2.90;99.90
21646;DHT22;10984;45.712;4.800;2023-02-01T03:47:06;2.90;99.90
21646;DHT22;10984;45.712;4.800;2023-02-01T03:49:35;2.80;99.90
21646;DHT22;10984;45.712;4.800;2023-02-01T03:52:02;2.80;99.90
21646;DHT22;10984;45.712;4.800;2023-02-01T03:54:31;2.80;99.90
21646;DHT22;10984;45.712;4.800;2023-02-01T03:57:00;2.90;99.90
21646;DHT22;10984;45.712;4.800;2023-02-01T03:59:27;3.00;99.90
21646;DHT22;10984;45.712;4.800;2023-02-01T04:01:53;3.20;99.90
21646;DHT22;10984;45.712;4.800;2023-02-01T04:04:18;3.30;99.90
21646;DHT22;10984;45.712;4.800;2023-02-01T04:07:03;3.40;99.90
21646;DHT22;10984;45.712;4.800;2023-02-01T04:09:29;3.50;99.90
21646;DHT22;10984;45.712;4.800;2023-02-01T04:11:55;3.60;99.90
21646;DHT22;10984;45.712;4.800;2023-02-01T04:14:20;3.80;99.90
21646;DHT22;10984;45.712;4.800;2023-02-01T04:16:46;3.90;99.90
21646;DHT22;10984;45.712;4.800;2023-02-01T04:19:12;3.90;99.90
21646;DHT22;10984;45.712;4.800;2023-02-01T04:21:38;4.00;99.90
21646;DHT22;10984;45.712;4.800;2023-02-01T04:24:04;4.10;99.90
21646;DHT22;10984;45.712;4.800;2023-02-01T04:26:30;4.20;99.90
21646;DHT22;10984;45.712;4.800;2023-02-01T04:28:55;4.30;99.90
21646;DHT22;10984;45.712;4.800;2023-02-01T04:31:21;4.40;99.90
21646;DHT22;10984;45.712;4.800;2023-02-01T04:34:05;4.40;99.90
21646;DHT22;10984;45.712;4.800;2023-02-01T04:36:31;4.50;99.90
21646;DHT22;10984;45.712;4.800;2023-02-01T04:38:56;4.60;99.90
21646;DHT22;10984;45.712;4.800;2023-02-01T04:41:22;4.70;99.90
21646;DHT22;10984;45.712;4.800;2023-02-01T04:43:49;4.70;99.90
21646;DHT22;10984;45.712;4.800;2023-02-01T04:46:15;4.70;99.90
21646;DHT22;10984;45.712;4.800;2023-02-01T04:48:41;4.70;99.90
21646;DHT22;10984;45.712;4.800;2023-02-01T04:51:08;4.80;99.90
21646;DHT22;10984;45.712;4.800;2023-02-01T04:53:33;4.80;99.90
21646;DHT22;10984;45.712;4.800;2023-02-01T04:55:59;4.80;99.90
21646;DHT22;10984;45.712;4.800;2023-02-01T04:58:24;4.80;99.90
21646;DHT22;10984;45.712;4.800;2023-02-01T05:00:50;4.80;99.90
21646;DHT22;10984;45.712;4.800;2023-02-01T05:03:17;4.90;99.90
21646;DHT22;10984;45.712;4.800;2023-02-01T05:05:43;4.90;99.90
21646;DHT22;10984;45.712;4.800;2023-02-01T05:08:08;4.90;99.90
21646;DHT22;10984;45.712;4.800;2023-02-01T05:10:34;4.90;99.90
21646;DHT22;10984;45.712;4.800;2023-02-01T05:12:59;4.90;99.90
21646;DHT22;10984;45.712;4.800;2023-02-01T05:15:43;4.90;99.90
21646;DHT22;10984;45.712;4.800;2023-02-01T05:18:11;4.90;99.90
21646;DHT22;10984;45.712;4.800;2023-02-01T05:20:37;5.00;99.90
21646;DHT22;10984;45.712;4.800;2023-02-01T05:23:03;5.00;99.90
21646;DHT22;10984;45.712;4.800;2023-02-01T05:25:28;5.00;99.90
21646;DHT22;10984;45.712;4.800;2023-02-01T05:27:54;5.00;99.90
21646;DHT22;10984;45.712;4.800;2023-02-01T05:30:20;5.00;99.90
21646;DHT22;10984;45.712;4.800;2023-02-01T05:32:50;5.00;99.90
21646;DHT22;10984;45.712;4.800;2023-02-01T05:35:15;5.00;99.90
21646;DHT22;10984;45.712;4.800;2023-02-01T05:37:41;5.00;99.90
21646;DHT22;10984;45.712;4.800;2023-02-01T05:40:07;5.00;99.90
21646;DHT22;10984;45.712;4.800;2023-02-01T05:42:33;5.10;99.90
21646;DHT22;10984;45.712;4.800;2023-02-01T05:44:58;5.10;99.90
21646;DHT22;10984;45.712;4.800;2023-02-01T05:47:24;5.10;99.90
21646;DHT22;10984;45.712;4.800;2023-02-01T05:49:50;5.20;99.90
21646;DHT22;10984;45.712;4.800;2023-02-01T05:52:15;5.20;99.90
21646;DHT22;10984;45.712;4.800;2023-02-01T05:57:29;5.20;99.90
21646;DHT22;10984;45.712;4.800;2023-02-01T05:59:55;5.20;99.90
21646;DHT22;10984;45.712;4.800;2023-02-01T06:02:21;5.20;99.90
21646;DHT22;10984;45.712;4.800;2023-02-01T06:04:47;5.20;99.90
21646;DHT22;10984;45.712;4.800;2023-02-01T06:07:12;5.30;99.90
21646;DHT22;10984;45.712;4.800;2023-02-01T06:09:38;5.30;99.90
21646;DHT22;10984;45.712;4.800;2023-02-01T06:12:04;5.30;99.90
21646;DHT22;10984;45.712;4.800;2023-02-01T06:14:30;5.30;99.90
21646;DHT22;10984;45.712;4.800;2023-02-01T06:16:56;5.30;99.90
21646;DHT22;10984;45.712;4.800;2023-02-01T06:19:22;5.30;99.90
21646;DHT22;10984;45.712;4.800;2023-02-01T06:21:48;5.30;99.90
21646;DHT22;10984;45.712;4.800;2023-02-01T06:24:14;5.30;99.90
21646;DHT22;10984;45.712;4.800;2023-02-01T06:26:40;5.40;99.90
21646;DHT22;10984;45.712;4.800;2023-02-01T06:29:06;5.40;99.90
21646;DHT22;10984;45.712;4.800;2023-02-01T06:31:33;5.50;99.90
21646;DHT22;10984;45.712;4.800;2023-02-01T06:33:58;5.50;99.90
21646;DHT22;10984;45.712;4.800;2023-02-01T06:36:24;5.50;99.90
21646;DHT22;10984;45.712;4.800;2023-02-01T06:38:50;5.50;99.90
21646;DHT22;10984;45.712;4.800;2023-02-01T06:41:16;5.40;99.90
21646;DHT22;10984;45.712;4.800;2023-02-01T06:43:41;5.50;99.90
21646;DHT22;10984;45.712;4.800;2023-02-01T06:46:11;5.50;99.90
21646;DHT22;10984;45.712;4.800;2023-02-01T06:48:37;5.60;99.90
21646;DHT22;10984;45.712;4.800;2023-02-01T06:51:03;5.50;99.90
21646;DHT22;10984;45.712;4.800;2023-02-01T06:53:28;5.50;99.90
21646;DHT22;10984;45.712;4.800;2023-02-01T06:55:56;5.50;99.90
21646;DHT22;10984;45.712;4.800;2023-02-01T06:58:23;5.50;99.90
21646;DHT22;10984;45.712;4.800;2023-02-01T07:00:49;5.50;99.90
21646;DHT22;10984;45.712;4.800;2023-02-01T07:03:14;5.50;99.90
21646;DHT22;10984;45.712;4.800;2023-02-01T07:05:40;5.50;99.90
21646;DHT22;10984;45.712;4.800;2023-02-01T07:08:06;5.50;99.90
21646;DHT22;10984;45.712;4.800;2023-02-01T07:10:33;5.50;99.90
21646;DHT22;10984;45.712;4.800;2023-02-01T07:12:59;5.50;99.90
21646;DHT22;10984;45.712;4.800;2023-02-01T07:15:25;5.50;99.90
21646;DHT22;10984;45.712;4.800;2023-02-01T07:17:50;5.50;99.90
21646;DHT22;10984;45.712;4.800;2023-02-01T07:20:16;5.50;99.90
21646;DHT22;10984;45.712;4.800;2023-02-01T07:22:42;5.50;99.90
21646;DHT22;10984;45.712;4.800;2023-02-01T07:25:08;5.60;99.90
21646;DHT22;10984;45.712;4.800;2023-02-01T07:27:37;5.60;99.90
21646;DHT22;10984;45.712;4.800;2023-02-01T07:30:03;5.70;99.90
21646;DHT22;10984;45.712;4.800;2023-02-01T07:32:29;5.70;99.90
21646;DHT22;10984;45.712;4.800;2023-02-01T07:34:56;5.80;99.90
21646;DHT22;10984;45.712;4.800;2023-02-01T07:37:21;5.80;99.90
21646;DHT22;10984;45.712;4.800;2023-02-01T07:39:49;5.80;99.90
21646;DHT22;10984;45.712;4.800;2023-02-01T07:42:15;5.80;99.90
21646;DHT22;10984;45.712;4.800;2023-02-01T07:44:41;5.80;99.90
21646;DHT22;10984;45.712;4.800;2023-02-01T07:47:06;5.80;99.90
21646;DHT22;10984;45.712;4.800;2023-02-01T07:49:32;5.80;99.90
21646;DHT22;10984;45.712;4.800;2023-02-01T07:51:57;5.80;99.90
21646;DHT22;10984;45.712;4.800;2023-02-01T07:54:23;5.90;99.90
21646;DHT22;10984;45.712;4.800;2023-02-01T07:56:49;5.90;99.90
21646;DHT22;10984;45.712;4.800;2023-02-01T07:59:14;5.80;99.90
21646;DHT22;10984;45.712;4.800;2023-02-01T08:01:41;5.80;99.90
21646;DHT22;10984;45.712;4.800;2023-02-01T08:04:09;5.70;99.90
21646;DHT22;10984;45.712;4.800;2023-02-01T08:06:35;5.70;99.90
21646;DHT22;10984;45.712;4.800;2023-02-01T08:09:01;5.60;99.90
21646;DHT22;10984;45.712;4.800;2023-02-01T08:11:27;5.60;99.90
21646;DHT22;10984;45.712;4.800;2023-02-01T08:13:53;5.70;99.90
21646;DHT22;10984;45.712;4.800;2023-02-01T08:16:20;5.70;99.90
21646;DHT22;10984;45.712;4.800;2023-02-01T08:18:46;5.80;99.90
21646;DHT22;10984;45.712;4.800;2023-02-01T08:24:09;6.10;99.90
21646;DHT22;10984;45.712;4.800;2023-02-01T08:26:35;6.40;99.90
21646;DHT22;10984;45.712;4.800;2023-02-01T08:29:03;6.70;99.90
21646;DHT22;10984;45.712;4.800;2023-02-01T08:31:29;6.90;99.90
21646;DHT22;10984;45.712;4.800;2023-02-01T08:33:59;7.20;99.90
21646;DHT22;10984;45.712;4.800;2023-02-01T08:36:27;7.20;99.90
21646;DHT22;10984;45.712;4.800;2023-02-01T08:38:53;7.40;99.90
21646;DHT22;10984;45.712;4.800;2023-02-01T08:41:22;7.50;99.90
21646;DHT22;10984;45.712;4.800;2023-02-01T08:43:48;7.50;99.90
21646;DHT22;10984;45.712;4.800;2023-02-01T08:46:14;7.50;99.90
21646;DHT22;10984;45.712;4.800;2023-02-01T08:48:41;7.30;99.90
21646;DHT22;10984;45.712;4.800;2023-02-01T08:51:08;7.30;99.90
21646;DHT22;10984;45.712;4.800;2023-02-01T08:53:34;7.30;99.90
21646;DHT22;10984;45.712;4.800;2023-02-01T08:56:01;7.30;99.90
21646;DHT22;10984;45.712;4.800;2023-02-01T08:58:27;7.40;99.90
21646;DHT22;10984;45.712;4.800;2023-02-01T09:00:53;7.50;99.90
21646;DHT22;10984;45.712;4.800;2023-02-01T09:03:18;7.70;99.90
21646;DHT22;10984;45.712;4.800;2023-02-01T09:05:44;8.00;99.90
21646;DHT22;10984;45.712;4.800;2023-02-01T09:08:11;8.10;99.90
21646;DHT22;10984;45.712;4.800;2023-02-01T09:10:40;8.30;99.90
21646;DHT22;10984;45.712;4.800;2023-02-01T09:13:07;8.40;99.90
21646;DHT22;10984;45.712;4.800;2023-02-01T09:15:33;8.30;99.90
21646;DHT22;10984;45.712;4.800;2023-02-01T09:17:59;8.10;99.90
21646;DHT22;10984;45.712;4.800;2023-02-01T09:20:25;8.10;99.90
21646;DHT22;10984;45.712;4.800;2023-02-01T09:22:51;8.00;99.90
21646;DHT22;10984;45.712;4.800;2023-02-01T09:25:17;8.10;99.90
21646;DHT22;10984;45.712;4.800;2023-02-01T09:27:43;8.30;99.90
21646;DHT22;10984;45.712;4.800;2023-02-01T09:30:09;8.20;99.90
21646;DHT22;10984;45.712;4.800;2023-02-01T09:32:36;8.30;99.90
21646;DHT22;10984;45.712;4.800;2023-02-01T09:35:02;8.50;99.90
21646;DHT22;10984;45.712;4.800;2023-02-01T09:37:28;8.60;99.90
21646;DHT22;10984;45.712;4.800;2023-02-01T09:39:53;8.60;99.90
21646;DHT22;10984;45.712;4.800;2023-02-01T09:48:31;8.50;99.90
21646;DHT22;10984;45.712;4.800;2023-02-01T09:50:59;8.40;99.90
21646;DHT22;10984;45.712;4.800;2023-02-01T09:53:48;8.40;99.90
21646;DHT22;10984;45.712;4.800;2023-02-01T09:59:39;8.30;99.90
21646;DHT22;10984;45.712;4.800;2023-02-01T10:04:59;8.40;99.90
21646;DHT22;10984;45.712;4.800;2023-02-01T10:16:37;8.60;99.90
21646;DHT22;10984;45.712;4.800;2023-02-01T10:22:09;8.80;99.90
21646;DHT22;10984;45.712;4.800;2023-02-01T10:30:16;9.20;99.90
21646;DHT22;10984;45.712;4.800;2023-02-01T10:32:43;9.20;99.90
21646;DHT22;10984;45.712;4.800;2023-02-01T10:35:28;9.40;99.90
21646;DHT22;10984;45.712;4.800;2023-02-01T10:37:55;9.50;99.90
21646;DHT22;10984;45.712;4.800;2023-02-01T10:40:23;9.50;99.90
21646;DHT22;10984;45.712;4.800;2023-02-01T10:42:56;9.50;99.90
21646;DHT22;10984;45.712;4.800;2023-02-01T10:45:27;9.40;99.90
21646;DHT22;10984;45.712;4.800;2023-02-01T10:47:55;9.20;99.90
21646;DHT22;10984;45.712;4.800;2023-02-01T10:55:55;9.20;99.90
21646;DHT22;10984;45.712;4.800;2023-02-01T10:58:28;9.30;99.90
21646;DHT22;10984;45.712;4.800;2023-02-01T11:03:58;9.60;99.90
21646;DHT22;10984;45.712;4.800;2023-02-01T11:06:44;9.60;99.90
21646;DHT22;10984;45.712;4.800;2023-02-01T11:09:29;9.60;99.90
21646;DHT22;10984;45.712;4.800;2023-02-01T11:11:59;9.60;99.90
21646;DHT22;10984;45.712;4.800;2023-02-01T11:23:01;9.60;99.90
21646;DHT22;10984;45.712;4.800;2023-02-01T11:25:27;9.60;99.90
21646;DHT22;10984;45.712;4.800;2023-02-01T11:27:54;9.60;99.90
21646;DHT22;10984;45.712;4.800;2023-02-01T11:30:40;9.60;99.90
21646;DHT22;10984;45.712;4.800;2023-02-01T11:33:13;9.70;99.90
21646;DHT22;10984;45.712;4.800;2023-02-01T11:35:41;9.80;99.90
21646;DHT22;10984;45.712;4.800;2023-02-01T11:38:27;9.70;99.90
21646;DHT22;10984;45.712;4.800;2023-02-01T11:40:53;9.80;99.90
21646;DHT22;10984;45.712;4.800;2023-02-01T11:43:37;10.00;99.90
21646;DHT22;10984;45.712;4.800;2023-02-01T11:46:08;10.10;99.90
21646;DHT22;10984;45.712;4.800;2023-02-01T11:48:41;10.10;99.90
21646;DHT22;10984;45.712;4.800;2023-02-01T11:59:45;10.00;99.90
21646;DHT22;10984;45.712;4.800;2023-02-01T12:17:00;10.70;99.90
21646;DHT22;10984;45.712;4.800;2023-02-01T12:19:53;11.00;99.90
21646;DHT22;10984;45.712;4.800;2023-02-01T12:28:49;10.90;99.90
21646;DHT22;10984;45.712;4.800;2023-02-01T12:34:55;10.70;99.90
21646;DHT22;10984;45.712;4.800;2023-02-01T12:52:26;10.30;99.90
21646;DHT22;10984;45.712;4.800;2023-02-01T12:55:00;10.20;99.90
21646;DHT22;10984;45.712;4.800;2023-02-01T12:57:32;10.20;99.90
21646;DHT22;10984;45.712;4.800;2023-02-01T13:11:54;10.00;99.90
21646;DHT22;10984;45.712;4.800;2023-02-01T13:17:29;9.90;99.90
21646;DHT22;10984;45.712;4.800;2023-02-01T13:22:43;9.90;99.90
21646;DHT22;10984;45.712;4.800;2023-02-01T13:40:47;9.80;99.90
21646;DHT22;10984;45.712;4.800;2023-02-01T13:43:24;9.60;99.90
21646;DHT22;10984;45.712;4.800;2023-02-01T13:45:55;9.60;99.90
21646;DHT22;10984;45.712;4.800;2023-02-01T13:51:45;9.60;99.90
21646;DHT22;10984;45.712;4.800;2023-02-01T13:54:33;9.60;99.90
21646;DHT22;10984;45.712;4.800;2023-02-01T13:57:01;9.70;99.90
21646;DHT22;10984;45.712;4.800;2023-02-01T14:11:05;9.50;99.90
21646;DHT22;10984;45.712;4.800;2023-02-01T14:13:49;9.40;99.90
21646;DHT22;10984;45.712;4.800;2023-02-01T14:16:16;9.30;99.90
21646;DHT22;10984;45.712;4.800;2023-02-01T14:24:33;9.30;99.90
21646;DHT22;10984;45.712;4.800;2023-02-01T14:29:52;9.40;99.90
21646;DHT22;10984;45.712;4.800;2023-02-01T14:32:38;9.50;99.90
21646;DHT22;10984;45.712;4.800;2023-02-01T14:37:54;9.20;99.90
21646;DHT22;10984;45.712;4.800;2023-02-01T14:50:59;9.20;99.90
21646;DHT22;10984;45.712;4.800;2023-02-01T15:00:23;9.20;99.90
21646;DHT22;10984;45.712;4.800;2023-02-01T16:24:23;8.10;99.90
21646;DHT22;10984;45.712;4.800;2023-02-01T16:26:51;8.10;99.90
21646;DHT22;10984;45.712;4.800;2023-02-01T16:29:16;8.10;99.90
21646;DHT22;10984;45.712;4.800;2023-02-01T16:31:42;8.10;99.90
21646;DHT22;10984;45.712;4.800;2023-02-01T16:34:26;8.10;99.90
21646;DHT22;10984;45.712;4.800;2023-02-01T16:36:52;8.10;99.90
21646;DHT22;10984;45.712;4.800;2023-02-01T16:39:21;8.10;99.90
21646;DHT22;10984;45.712;4.800;2023-02-01T16:41:47;8.10;99.90
21646;DHT22;10984;45.712;4.800;2023-02-01T16:44:12;8.00;99.90
21646;DHT22;10984;45.712;4.800;2023-02-01T16:46:57;7.90;99.90
21646;DHT22;10984;45.712;4.800;2023-02-01T16:49:24;7.90;99.90
21646;DHT22;10984;45.712;4.800;2023-02-01T16:51:51;7.80;99.90
21646;DHT22;10984;45.712;4.800;2023-02-01T16:54:36;7.80;99.90
21646;DHT22;10984;45.712;4.800;2023-02-01T16:57:01;7.90;99.90
21646;DHT22;10984;45.712;4.800;2023-02-01T16:59:27;7.80;99.90
21646;DHT22;10984;45.712;4.800;2023-02-01T17:01:52;7.80;99.90
21646;DHT22;10984;45.712;4.800;2023-02-01T17:04:18;7.80;99.90
21646;DHT22;10984;45.712;4.800;2023-02-01T17:06:45;7.80;99.90
21646;DHT22;10984;45.712;4.800;2023-02-01T17:09:14;7.70;99.90
21646;DHT22;10984;45.712;4.800;2023-02-01T17:11:39;7.70;99.90
21646;DHT22;10984;45.712;4.800;2023-02-01T17:14:24;7.60;99.90
21646;DHT22;10984;45.712;4.800;2023-02-01T17:16:50;7.50;99.90
21646;DHT22;10984;45.712;4.800;2023-02-01T17:19:18;7.40;99.90
21646;DHT22;10984;45.712;4.800;2023-02-01T17:21:50;7.30;99.90
21646;DHT22;10984;45.712;4.800;2023-02-01T17:24:23;7.20;99.90
21646;DHT22;10984;45.712;4.800;2023-02-01T17:26:50;7.10;99.90
21646;DHT22;10984;45.712;4.800;2023-02-01T17:29:16;7.10;99.90
21646;DHT22;10984;45.712;4.800;2023-02-01T17:31:46;7.00;99.90
21646;DHT22;10984;45.712;4.800;2023-02-01T17:34:13;7.10;99.90
21646;DHT22;10984;45.712;4.800;2023-02-01T17:36:40;7.20;99.90
21646;DHT22;10984;45.712;4.800;2023-02-01T17:39:07;7.30;99.90
21646;DHT22;10984;45.712;4.800;2023-02-01T17:41:33;7.20;99.90
21646;DHT22;10984;45.712;4.800;2023-02-01T17:43:59;7.20;99.90
21646;DHT22;10984;45.712;4.800;2023-02-01T17:46:25;7.10;99.90
21646;DHT22;10984;45.712;4.800;2023-02-01T17:48:52;7.10;99.90
21646;DHT22;10984;45.712;4.800;2023-02-01T17:51:21;7.10;99.90
21646;DHT22;10984;45.712;4.800;2023-02-01T17:53:47;7.10;99.90
21646;DHT22;10984;45.712;4.800;2023-02-01T17:56:18;7.10;99.90
21646;DHT22;10984;45.712;4.800;2023-02-01T17:58:45;7.10;99.90
21646;DHT22;10984;45.712;4.800;2023-02-01T18:04:00;7.10;99.90
21646;DHT22;10984;45.712;4.800;2023-02-01T18:06:26;7.10;99.90
21646;DHT22;10984;45.712;4.800;2023-02-01T18:08:52;7.10;99.90
21646;DHT22;10984;45.712;4.800;2023-02-01T18:11:20;7.10;99.90
21646;DHT22;10984;45.712;4.800;2023-02-01T18:13:47;7.10;99.90
21646;DHT22;10984;45.712;4.800;2023-02-01T18:16:32;7.10;99.90
21646;DHT22;10984;45.712;4.800;2023-02-01T18:18:59;7.20;99.90
21646;DHT22;10984;45.712;4.800;2023-02-01T18:24:15;7.20;99.90
21646;DHT22;10984;45.712;4.800;2023-02-01T18:26:42;7.20;99.90
21646;DHT22;10984;45.712;4.800;2023-02-01T18:29:07;7.20;99.90
21646;DHT22;10984;45.712;4.800;2023-02-01T18:31:35;7.10;99.90
21646;DHT22;10984;45.712;4.800;2023-02-01T18:34:02;7.10;99.90
21646;DHT22;10984;45.712;4.800;2023-02-01T18:36:28;7.00;99.90
21646;DHT22;10984;45.712;4.800;2023-02-01T18:38:55;7.00;99.90
21646;DHT22;10984;45.712;4.800;2023-02-01T18:41:22;7.10;99.90
21646;DHT22;10984;45.712;4.800;2023-02-01T18:43:50;7.00;99.90
21646;DHT22;10984;45.712;4.800;2023-02-01T18:46:16;7.00;99.90
21646;DHT22;10984;45.712;4.800;2023-02-01T18:48:42;7.00;99.90
21646;DHT22;10984;45.712;4.800;2023-02-01T18:51:27;6.90;99.90
21646;DHT22;10984;45.712;4.800;2023-02-01T18:53:52;6.90;99.90
21646;DHT22;10984;45.712;4.800;2023-02-01T18:56:18;6.80;99.90
21646;DHT22;10984;45.712;4.800;2023-02-01T18:58:44;6.80;99.90
21646;DHT22;10984;45.712;4.800;2023-02-01T19:01:29;6.80;99.90
21646;DHT22;10984;45.712;4.800;2023-02-01T19:03:55;6.80;99.90
21646;DHT22;10984;45.712;4.800;2023-02-01T19:06:21;6.80;99.90
21646;DHT22;10984;45.712;4.800;2023-02-01T19:08:47;6.70;99.90
21646;DHT22;10984;45.712;4.800;2023-02-01T19:11:13;6.80;99.90
21646;DHT22;10984;45.712;4.800;2023-02-01T19:13:39;6.70;99.90
21646;DHT22;10984;45.712;4.800;2023-02-01T19:16:09;6.70;99.90
21646;DHT22;10984;45.712;4.800;2023-02-01T19:18:35;6.70;99.90
21646;DHT22;10984;45.712;4.800;2023-02-01T19:21:10;6.70;99.90
21646;DHT22;10984;45.712;4.800;2023-02-01T19:23:55;6.60;99.90
21646;DHT22;10984;45.712;4.800;2023-02-01T19:26:21;6.60;99.90
21646;DHT22;10984;45.712;4.800;2023-02-01T19:28:46;6.50;99.90
21646;DHT22;10984;45.712;4.800;2023-02-01T19:31:14;6.50;99.90
21646;DHT22;10984;45.712;4.800;2023-02-01T19:33:39;6.40;99.90
21646;DHT22;10984;45.712;4.800;2023-02-01T19:36:06;6.40;99.90
21646;DHT22;10984;45.712;4.800;2023-02-01T19:38:33;6.30;99.90
21646;DHT22;10984;45.712;4.800;2023-02-01T19:41:00;6.30;99.90
21646;DHT22;10984;45.712;4.800;2023-02-01T19:43:27;6.30;99.90
21646;DHT22;10984;45.712;4.800;2023-02-01T19:45:53;6.30;99.90
21646;DHT22;10984;45.712;4.800;2023-02-01T19:48:20;6.30;99.90
21646;DHT22;10984;45.712;4.800;2023-02-01T19:50:45;6.30;99.90
21646;DHT22;10984;45.712;4.800;2023-02-01T19:53:12;6.30;99.90
21646;DHT22;10984;45.712;4.800;2023-02-01T19:55:37;6.30;99.90
21646;DHT22;10984;45.712;4.800;2023-02-01T19:58:03;6.20;99.90
21646;DHT22;10984;45.712;4.800;2023-02-01T20:00:31;6.20;99.90
21646;DHT22;10984;45.712;4.800;2023-02-01T20:02:57;6.20;99.90
21646;DHT22;10984;45.712;4.800;2023-02-01T20:05:24;6.20;99.90
21646;DHT22;10984;45.712;4.800;2023-02-01T20:07:49;6.20;99.90
21646;DHT22;10984;45.712;4.800;2023-02-01T20:10:15;6.20;99.90
21646;DHT22;10984;45.712;4.800;2023-02-01T20:12:41;6.20;99.90
21646;DHT22;10984;45.712;4.800;2023-02-01T20:15:07;6.20;99.90
21646;DHT22;10984;45.712;4.800;2023-02-01T20:17:33;6.20;99.90
21646;DHT22;10984;45.712;4.800;2023-02-01T20:20:01;6.30;99.90
21646;DHT22;10984;45.712;4.800;2023-02-01T20:22:26;6.30;99.90
21646;DHT22;10984;45.712;4.800;2023-02-01T20:24:52;6.20;99.90
21646;DHT22;10984;45.712;4.800;2023-02-01T20:27:18;6.30;99.90
21646;DHT22;10984;45.712;4.800;2023-02-01T20:29:43;6.30;99.90
21646;DHT22;10984;45.712;4.800;2023-02-01T20:32:09;6.30;99.90
21646;DHT22;10984;45.712;4.800;2023-02-01T20:34:35;6.20;99.90
21646;DHT22;10984;45.712;4.800;2023-02-01T20:37:00;6.20;99.90
21646;DHT22;10984;45.712;4.800;2023-02-01T20:39:26;6.20;99.90
21646;DHT22;10984;45.712;4.800;2023-02-01T20:41:52;6.20;99.90
21646;DHT22;10984;45.712;4.800;2023-02-01T20:44:18;6.20;99.90
21646;DHT22;10984;45.712;4.800;2023-02-01T20:46:43;6.20;99.90
21646;DHT22;10984;45.712;4.800;2023-02-01T20:49:09;6.20;99.90
21646;DHT22;10984;45.712;4.800;2023-02-01T20:51:34;6.30;99.90
21646;DHT22;10984;45.712;4.800;2023-02-01T20:54:00;6.30;99.90
21646;DHT22;10984;45.712;4.800;2023-02-01T20:56:26;6.30;99.90
21646;DHT22;10984;45.712;4.800;2023-02-01T20:58:51;6.30;99.90
21646;DHT22;10984;45.712;4.800;2023-02-01T21:01:17;6.30;99.90
21646;DHT22;10984;45.712;4.800;2023-02-01T21:03:43;6.30;99.90
21646;DHT22;10984;45.712;4.800;2023-02-01T21:06:10;6.30;99.90
21646;DHT22;10984;45.712;4.800;2023-02-01T21:08:36;6.30;99.90
21646;DHT22;10984;45.712;4.800;2023-02-01T21:13:48;6.30;99.90
21646;DHT22;10984;45.712;4.800;2023-02-01T21:16:32;6.30;99.90
21646;DHT22;10984;45.712;4.800;2023-02-01T21:18:58;6.20;99.90
21646;DHT22;10984;45.712;4.800;2023-02-01T21:21:23;6.20;99.90
21646;DHT22;10984;45.712;4.800;2023-02-01T21:23:49;6.20;99.90